Time;durP1;ratioP1;P1;durP2;ratioP2;P2;SDS_P1;SDS_P2;PMS_P1;PMS_P2;Temp;Humidity;BMP_temperature;BMP_pressure;BME280_temperature;BME280_humidity;BME280_pressure;Samples;Min_cycle;Max_cycle;Signal;HPM_P1;HPM_P2
2021/04/07 00:00:39;;;;;;;57.98;24.50;;;;;;;-2.92;67.52;96044.14;1797743;79;25651;-80
2021/04/07 00:03:10;;;;;;;50.63;23.60;;;;;;;-2.91;67.63;96051.58;1797797;78;25761;-79
2021/04/07 00:05:41;;;;;;;55.75;24.18;;;;;;;-2.90;67.61;96051.91;1797815;78;28388;-80
2021/04/07 00:08:09;;;;;;;58.02;26.55;;;;;;;-2.93;67.60;96048.27;1797855;79;25722;-79
2021/04/07 00:10:44;;;;;;;62.78;26.62;;;;;;;-2.97;67.52;96045.60;1797710;78;25703;-79
2021/04/07 00:13:14;;;;;;;67.17;28.40;;;;;;;-2.93;67.55;96050.91;1797797;79;26448;-79
2021/04/07 00:15:43;;;;;;;60.05;24.90;;;;;;;-2.87;67.56;96053.37;1797788;79;26349;-79
2021/04/07 00:18:10;;;;;;;61.33;25.05;;;;;;;-2.96;67.48;96062.61;1797805;79;28481;-79
2021/04/07 00:20:38;;;;;;;72.67;26.68;;;;;;;-3.02;67.50;96059.27;1797619;79;26025;-79
2021/04/07 00:23:07;;;;;;;81.87;30.90;;;;;;;-3.02;67.61;96067.20;1797794;79;25702;-79
2021/04/07 00:25:35;;;;;;;207.87;48.30;;;;;;;-2.99;67.57;96066.05;1797847;79;25701;-79
2021/04/07 00:28:05;;;;;;;143.87;38.98;;;;;;;-2.97;67.53;96072.00;1797911;79;25813;-79
2021/04/07 00:30:36;;;;;;;85.20;29.18;;;;;;;-3.00;67.46;96060.44;1797702;79;28372;-79
2021/04/07 00:33:04;;;;;;;66.00;25.25;;;;;;;-3.03;67.41;96074.81;1789289;79;25728;-80
2021/04/07 00:35:32;;;;;;;58.08;23.92;;;;;;;-3.04;67.50;96076.28;1786331;79;25771;-80
2021/04/07 00:38:00;;;;;;;54.63;23.42;;;;;;;-3.02;67.48;96069.03;1786331;79;25734;-80
2021/04/07 00:40:27;;;;;;;53.30;22.67;;;;;;;-3.02;67.44;96071.16;1786317;80;25829;-79
2021/04/07 00:42:56;;;;;;;62.65;24.05;;;;;;;-2.99;67.56;96074.80;1786341;79;28469;-79
2021/04/07 00:45:24;;;;;;;55.63;25.97;;;;;;;-2.87;67.49;96076.66;1786230;79;26369;-80
2021/04/07 00:47:54;;;;;;;57.65;25.15;;;;;;;-2.87;67.39;96079.30;1786339;79;25775;-79
2021/04/07 00:50:25;;;;;;;62.20;28.12;;;;;;;-2.87;67.29;96081.94;1786277;78;25825;-79
2021/04/07 00:52:53;;;;;;;52.23;21.27;;;;;;;-2.92;67.34;96077.64;1786687;79;25279;-79
2021/04/07 00:55:29;;;;;;;66.60;27.75;;;;;;;-2.99;67.28;96086.69;1786331;79;28458;-79
2021/04/07 00:57:57;;;;;;;58.63;25.62;;;;;;;-3.00;67.39;96085.52;1785649;79;25648;-79
2021/04/07 01:00:26;;;;;;;51.00;25.65;;;;;;;-3.03;67.43;96088.50;1786348;79;26568;-79
2021/04/07 01:02:57;;;;;;;65.60;26.95;;;;;;;-3.05;67.49;96083.87;1786306;79;25830;-79
2021/04/07 01:05:26;;;;;;;63.73;28.10;;;;;;;-3.06;67.48;96086.17;1786314;79;25830;-79
2021/04/07 01:07:56;;;;;;;67.25;29.42;;;;;;;-3.02;67.42;96091.48;1786313;79;27497;-80
2021/04/07 01:10:24;;;;;;;80.20;32.42;;;;;;;-3.10;67.33;96079.55;1786229;79;25650;-79
2021/04/07 01:12:53;;;;;;;67.12;25.92;;;;;;;-3.13;67.31;96091.73;1786308;80;25706;-80
2021/04/07 01:15:21;;;;;;;110.03;33.33;;;;;;;-3.16;67.44;96090.75;1786293;79;25699;-80
2021/04/07 01:17:49;;;;;;;101.65;33.65;;;;;;;-3.12;67.47;96092.07;1786332;80;25287;-80
2021/04/07 01:20:20;;;;;;;75.20;27.82;;;;;;;-3.08;67.53;96092.09;1786243;79;27564;-79
2021/04/07 01:22:55;;;;;;;51.63;23.90;;;;;;;-3.07;67.46;96097.72;1786309;80;25735;-79
2021/04/07 01:25:22;;;;;;;65.05;28.17;;;;;;;-3.12;67.46;96097.35;1786272;79;25726;-80
2021/04/07 01:27:51;;;;;;;61.73;25.17;;;;;;;-3.12;67.49;96101.31;1786265;79;25818;-79
2021/04/07 01:30:19;;;;;;;57.45;24.40;;;;;;;-3.14;67.36;96100.67;1786119;79;25845;-79
2021/04/07 01:32:47;;;;;;;50.05;22.52;;;;;;;-3.26;67.31;96102.77;1787949;79;27436;-79
2021/04/07 01:35:18;;;;;;;56.98;23.90;;;;;;;-3.34;67.45;96096.10;1822873;78;26193;-79
2021/04/07 01:37:46;;;;;;;48.38;20.72;;;;;;;-3.33;67.54;96099.08;1822888;78;25764;-79
2021/04/07 01:40:16;;;;;;;47.70;20.23;;;;;;;-3.32;67.52;96106.84;1822770;78;25722;-79
2021/04/07 01:42:47;;;;;;;43.55;18.70;;;;;;;-3.33;67.56;96107.83;1822970;78;25702;-79
2021/04/07 01:45:15;;;;;;;47.30;20.25;;;;;;;-3.31;67.52;96107.18;1822794;78;28116;-79
2021/04/07 01:47:45;;;;;;;57.15;26.57;;;;;;;-3.34;67.53;96103.53;1822811;78;25751;-79
2021/04/07 01:50:12;;;;;;;45.33;22.37;;;;;;;-3.44;67.47;96104.14;1822759;78;25689;-79
2021/04/07 01:52:40;;;;;;;57.05;26.17;;;;;;;-3.56;67.49;96099.28;1822848;78;26264;-79
2021/04/07 01:55:08;;;;;;;48.80;23.30;;;;;;;-3.58;67.70;96095.97;1822841;78;25768;-79
2021/04/07 01:57:37;;;;;;;47.83;22.13;;;;;;;-3.55;67.74;96096.98;1822771;78;27444;-79
2021/04/07 02:00:14;;;;;;;47.95;21.50;;;;;;;-3.49;67.80;96098.49;1822836;78;25762;-79
2021/04/07 02:02:42;;;;;;;42.50;19.65;;;;;;;-3.46;67.71;96103.47;1822941;78;25709;-79
2021/04/07 02:05:11;;;;;;;37.58;18.67;;;;;;;-3.47;67.61;96100.98;1822873;78;25733;-79
2021/04/07 02:07:39;;;;;;;36.28;17.15;;;;;;;-3.59;67.55;96095.14;1822840;78;25848;-79
2021/04/07 02:10:08;;;;;;;36.38;15.78;;;;;;;-3.60;67.56;96097.44;1822806;78;28445;-79
2021/04/07 02:12:36;;;;;;;37.48;15.70;;;;;;;-3.62;67.68;96098.09;1822705;78;25766;-79
2021/04/07 02:15:15;;;;;;;33.98;16.55;;;;;;;-3.65;67.73;96098.42;1822817;78;25675;-79
2021/04/07 02:17:45;;;;;;;32.93;15.85;;;;;;;-3.81;67.67;96101.77;1822922;78;25656;-79
2021/04/07 02:20:14;;;;;;;31.33;16.10;;;;;;;-3.83;67.86;96111.64;1822892;78;25683;-79
2021/04/07 02:22:42;;;;;;;31.85;15.05;;;;;;;-3.76;67.95;96114.02;1822918;78;27755;-79
2021/04/07 02:25:12;;;;;;;33.10;15.60;;;;;;;-3.69;67.85;96108.93;1822679;78;25676;-79
2021/04/07 02:27:40;;;;;;;39.53;15.23;;;;;;;-3.65;67.75;96111.61;1822858;78;25754;-79
2021/04/07 02:30:13;;;;;;;47.70;19.07;;;;;;;-3.66;67.73;96116.55;1822774;78;26384;-79
2021/04/07 02:32:40;;;;;;;52.93;20.52;;;;;;;-3.65;67.69;96111.12;1821638;78;25725;-79
2021/04/07 02:35:10;;;;;;;29.32;16.23;;;;;;;-3.65;67.64;96108.97;1819274;78;27571;-79
2021/04/07 02:37:37;;;;;;;32.93;15.63;;;;;;;-3.70;67.49;96116.50;1819195;78;26129;-79
2021/04/07 02:40:06;;;;;;;29.87;15.03;;;;;;;-3.72;67.51;96108.74;1819291;78;25691;-78
2021/04/07 02:42:33;;;;;;;34.00;16.95;;;;;;;-3.71;67.58;96116.16;1819415;78;26459;-79
2021/04/07 02:45:01;;;;;;;40.33;19.55;;;;;;;-3.64;67.66;96117.22;1819544;78;26239;-79
2021/04/07 02:47:29;;;;;;;35.75;16.27;;;;;;;-3.63;67.37;96121.52;1819477;78;27497;-79
2021/04/07 02:49:57;;;;;;;39.55;17.02;;;;;;;-3.70;67.48;96120.46;1819468;78;25739;-79
2021/04/07 02:52:24;;;;;;;46.23;19.15;;;;;;;-3.71;67.49;96126.22;1819532;78;25768;-79
2021/04/07 02:54:53;;;;;;;37.10;18.60;;;;;;;-3.65;67.63;96121.66;1819510;78;25849;-79
2021/04/07 02:57:20;;;;;;;58.28;24.85;;;;;;;-3.65;67.61;96123.47;1819568;78;25758;-79
2021/04/07 02:59:50;;;;;;;59.77;23.57;;;;;;;-3.66;67.60;96121.33;1819564;78;28652;-79
2021/04/07 03:02:18;;;;;;;57.80;25.23;;;;;;;-3.65;67.61;96124.79;1819464;78;25730;-79
2021/04/07 03:04:45;;;;;;;46.18;21.33;;;;;;;-3.72;67.53;96126.38;1819424;78;25713;-79
2021/04/07 03:07:13;;;;;;;36.93;17.07;;;;;;;-3.72;67.65;96129.02;1819486;78;25714;-79
2021/04/07 03:09:40;;;;;;;35.05;16.32;;;;;;;-3.71;67.64;96126.72;1819495;78;25739;-79
2021/04/07 03:12:08;;;;;;;31.87;15.30;;;;;;;-3.75;67.70;96131.98;1819470;78;27504;-79
2021/04/07 03:14:35;;;;;;;34.35;16.23;;;;;;;-3.81;67.69;96128.63;1819270;78;25306;-79
2021/04/07 03:17:03;;;;;;;36.42;15.35;;;;;;;-3.84;67.81;96135.52;1819465;78;25689;-79
2021/04/07 03:19:30;;;;;;;33.50;16.67;;;;;;;-3.84;67.84;96131.56;1819433;78;25695;-79
2021/04/07 03:21:58;;;;;;;39.80;17.32;;;;;;;-3.85;67.75;96133.86;1819531;78;25739;-79
2021/04/07 03:24:26;;;;;;;37.60;17.62;;;;;;;-3.88;67.79;96135.02;1819457;78;27553;-79
2021/04/07 03:26:53;;;;;;;32.90;15.63;;;;;;;-3.82;67.86;96140.15;1819456;78;26345;-78
2021/04/07 03:29:20;;;;;;;33.33;14.55;;;;;;;-3.79;67.78;96139.84;1819437;78;25720;-79
2021/04/07 03:31:48;;;;;;;33.50;14.75;;;;;;;-3.78;67.86;96130.96;1819406;78;25762;-79
2021/04/07 03:34:15;;;;;;;29.45;14.00;;;;;;;-3.74;67.91;96133.61;1797703;78;25724;-79
2021/04/07 03:36:43;;;;;;;32.93;15.25;;;;;;;-3.68;68.01;96132.52;1791886;79;27488;-79
2021/04/07 03:39:10;;;;;;;32.53;15.35;;;;;;;-3.65;67.99;96140.61;1791760;79;25653;-79
2021/04/07 03:41:38;;;;;;;33.80;14.70;;;;;;;-3.64;67.99;96135.19;1791957;80;25769;-78
2021/04/07 03:44:06;;;;;;;38.78;14.95;;;;;;;-3.65;67.98;96140.61;1791866;78;25702;-78
2021/04/07 03:46:33;;;;;;;32.48;14.95;;;;;;;-3.62;67.99;96138.47;1791819;80;25851;-79
2021/04/07 03:49:01;;;;;;;31.57;13.58;;;;;;;-3.59;67.88;96146.58;1791912;80;27567;-79
2021/04/07 03:51:28;;;;;;;42.65;15.72;;;;;;;-3.55;67.89;96155.84;1791797;79;26537;-79
2021/04/07 03:53:56;;;;;;;30.15;14.00;;;;;;;-3.53;67.86;96155.20;1791839;79;25789;-79
2021/04/07 03:56:23;;;;;;;32.67;13.55;;;;;;;-3.53;67.89;96160.48;1791853;80;25683;-79
2021/04/07 03:58:51;;;;;;;38.90;14.18;;;;;;;-3.49;67.98;96163.12;1791904;79;25772;-79
2021/04/07 04:01:19;;;;;;;28.23;12.78;;;;;;;-3.51;67.81;96166.44;1791867;80;28386;-79
2021/04/07 04:03:46;;;;;;;36.88;15.60;;;;;;;-3.51;67.81;96168.24;1791852;79;25801;-79
2021/04/07 04:06:13;;;;;;;38.58;16.35;;;;;;;-3.47;67.73;96174.36;1791891;79;25638;-79
2021/04/07 04:08:41;;;;;;;47.60;17.15;;;;;;;-3.48;67.68;96175.34;1791843;78;25773;-79
2021/04/07 04:11:09;;;;;;;52.23;18.73;;;;;;;-3.50;67.44;96175.98;1791897;79;25761;-79
2021/04/07 04:13:37;;;;;;;98.47;28.87;;;;;;;-3.49;67.45;96177.63;1791924;79;27498;-79
2021/04/07 04:16:05;;;;;;;116.37;33.92;;;;;;;-3.47;67.56;96175.67;1791691;79;25757;-79
2021/04/07 04:18:33;;;;;;;68.72;24.18;;;;;;;-3.45;67.65;96176.35;1791900;80;25755;-79
2021/04/07 04:21:00;;;;;;;50.98;18.85;;;;;;;-3.44;67.66;96180.65;1791934;79;25723;-79
2021/04/07 04:23:28;;;;;;;49.48;17.02;;;;;;;-3.42;67.72;96178.69;1791942;79;25927;-79
2021/04/07 04:25:55;;;;;;;48.73;15.15;;;;;;;-3.37;67.79;96182.16;1791787;78;27572;-79
2021/04/07 04:28:22;;;;;;;41.92;18.07;;;;;;;-3.33;67.68;96184.34;1791787;79;26117;-79
2021/04/07 04:30:50;;;;;;;58.33;21.75;;;;;;;-3.31;67.64;96185.52;1791783;79;25842;-79
2021/04/07 04:33:17;;;;;;;49.10;21.42;;;;;;;-3.34;67.64;96184.50;1791865;78;26206;-79
2021/04/07 04:35:45;;;;;;;44.33;20.32;;;;;;;-3.28;67.74;96193.95;1791933;79;25766;-79
2021/04/07 04:38:13;;;;;;;43.00;19.65;;;;;;;-3.19;67.93;96195.31;1791851;79;27558;-79
2021/04/07 04:40:40;;;;;;;32.98;13.45;;;;;;;-3.19;67.88;96198.79;1791680;79;25746;-79
2021/04/07 04:43:08;;;;;;;36.10;13.00;;;;;;;-3.11;67.82;96203.27;1791874;80;25679;-79
2021/04/07 04:45:36;;;;;;;25.00;12.23;;;;;;;-3.12;67.56;96206.41;1791780;80;25709;-80
2021/04/07 04:48:05;;;;;;;35.50;13.45;;;;;;;-3.09;67.60;96210.55;1791869;79;25813;-79
2021/04/07 04:50:32;;;;;;;31.62;12.85;;;;;;;-3.01;67.58;96210.59;1791844;80;27502;-80
2021/04/07 04:53:01;;;;;;;32.45;13.05;;;;;;;-3.00;67.62;96214.89;1791677;80;25670;-80
2021/04/07 04:55:28;;;;;;;27.87;11.50;;;;;;;-2.95;67.49;96208.66;1791831;80;25288;-80
2021/04/07 04:57:56;;;;;;;34.33;14.28;;;;;;;-2.93;67.60;96214.61;1791930;79;26301;-80
2021/04/07 05:00:24;;;;;;;58.10;20.17;;;;;;;-2.86;67.65;96214.30;1791902;80;25729;-79
2021/04/07 05:02:52;;;;;;;71.07;24.77;;;;;;;-2.85;67.66;96215.97;1791857;79;28460;-80
2021/04/07 05:05:19;;;;;;;50.80;20.40;;;;;;;-2.78;67.66;96222.29;1791731;80;26182;-79
2021/04/07 05:07:47;;;;;;;45.55;18.20;;;;;;;-2.76;67.62;96217.66;1791928;79;25794;-80
2021/04/07 05:10:15;;;;;;;42.55;18.90;;;;;;;-2.75;67.52;96219.31;1791939;80;25832;-80
2021/04/07 05:12:42;;;;;;;41.18;19.52;;;;;;;-2.66;67.56;96223.67;1791876;79;25712;-80
2021/04/07 05:15:12;;;;;;;43.17;17.40;;;;;;;-2.66;67.44;96219.70;1791788;80;27472;-80
2021/04/07 05:17:40;;;;;;;34.35;16.48;;;;;;;-2.73;67.26;96221.80;1791772;80;26220;-80
2021/04/07 05:20:09;;;;;;;39.45;18.62;;;;;;;-2.71;67.33;96227.75;1791744;78;25676;-80
2021/04/07 05:22:37;;;;;;;40.65;18.52;;;;;;;-2.61;67.45;96226.64;1791843;80;25767;-79
2021/04/07 05:25:05;;;;;;;32.63;17.30;;;;;;;-2.56;67.30;96223.54;1791783;80;25785;-80
2021/04/07 05:27:33;;;;;;;33.60;15.55;;;;;;;-2.51;67.42;96224.36;1791826;80;28386;-79
2021/04/07 05:30:00;;;;;;;34.75;15.35;;;;;;;-2.43;67.45;96220.45;1791710;80;26100;-80
2021/04/07 05:32:28;;;;;;;39.08;15.35;;;;;;;-2.39;67.45;96227.05;1791743;79;25683;-79
2021/04/07 05:34:55;;;;;;;28.67;13.68;;;;;;;-2.32;67.66;96229.41;1791579;78;25682;-79
2021/04/07 05:37:23;;;;;;;33.78;15.78;;;;;;;-2.24;67.39;96234.22;1791791;79;25758;-80
2021/04/07 05:39:51;;;;;;;38.98;17.20;;;;;;;-2.17;67.28;96233.06;1791787;79;26649;-79
2021/04/07 05:42:18;;;;;;;43.60;19.05;;;;;;;-2.11;67.42;96229.79;1791629;79;25753;-80
2021/04/07 05:44:46;;;;;;;45.08;19.98;;;;;;;-2.06;67.53;96231.47;1791766;80;25741;-80
2021/04/07 05:47:13;;;;;;;37.10;18.07;;;;;;;-1.97;67.66;96238.91;1791707;80;26963;-80
2021/04/07 05:49:41;;;;;;;36.00;17.60;;;;;;;-1.97;67.46;96240.23;1791839;80;25718;-80
2021/04/07 05:52:09;;;;;;;42.65;21.23;;;;;;;-1.95;67.51;96246.20;1791658;79;27481;-80
2021/04/07 05:54:36;;;;;;;57.58;27.58;;;;;;;-1.85;67.68;96245.05;1791729;78;25706;-80
2021/04/07 05:57:05;;;;;;;64.70;25.55;;;;;;;-1.82;67.44;96245.23;1791848;79;25674;-79
2021/04/07 05:59:34;;;;;;;62.67;27.25;;;;;;;-1.74;67.53;96246.55;1791755;79;26161;-79
2021/04/07 06:02:02;;;;;;;82.60;32.88;;;;;;;-1.66;67.52;96250.52;1791879;78;25792;-79
2021/04/07 06:04:30;;;;;;;84.50;33.55;;;;;;;-1.56;67.52;96249.03;1791712;80;28436;-79
2021/04/07 06:06:57;;;;;;;77.25;36.58;;;;;;;-1.45;67.66;96258.00;1791772;80;25721;-80
2021/04/07 06:09:25;;;;;;;78.22;34.05;;;;;;;-1.36;67.55;96250.39;1791700;79;25648;-79
2021/04/07 06:11:53;;;;;;;114.97;48.48;;;;;;;-1.32;67.47;96254.34;1791754;79;25776;-79
2021/04/07 06:14:21;;;;;;;74.15;32.60;;;;;;;-1.25;67.53;96255.34;1791800;80;25688;-80
2021/04/07 06:16:48;;;;;;;70.17;31.45;;;;;;;-1.26;67.35;96252.36;1791811;79;28140;-79
2021/04/07 06:19:17;;;;;;;56.73;28.02;;;;;;;-1.21;67.50;96260.62;1791722;79;25695;-79
2021/04/07 06:21:44;;;;;;;51.48;26.25;;;;;;;-1.12;67.39;96258.32;1791714;80;25770;-79
2021/04/07 06:24:12;;;;;;;62.23;27.25;;;;;;;-1.06;67.36;96263.43;1791807;80;25743;-79
2021/04/07 06:26:39;;;;;;;54.53;26.15;;;;;;;-0.97;67.54;96262.95;1791663;79;25259;-79
2021/04/07 06:29:08;;;;;;;48.30;23.02;;;;;;;-1.00;67.53;96266.75;1791511;80;45443;-79
2021/04/07 06:31:36;;;;;;;36.83;18.40;;;;;;;-0.96;67.71;96268.55;1791601;78;25740;-79
2021/04/07 06:34:03;;;;;;;28.87;14.80;;;;;;;-0.92;67.74;96269.38;1791714;78;25810;-79
2021/04/07 06:36:31;;;;;;;29.45;14.80;;;;;;;-0.89;67.76;96273.52;1791687;80;25834;-79
2021/04/07 06:38:58;;;;;;;24.12;13.55;;;;;;;-0.84;67.71;96277.80;1791848;79;25292;-80
2021/04/07 06:41:26;;;;;;;27.93;14.73;;;;;;;-0.86;67.89;96276.67;1791727;80;27423;-79
2021/04/07 06:43:57;;;;;;;32.35;15.40;;;;;;;-0.75;68.03;96275.48;1791755;80;25685;-79
2021/04/07 06:46:25;;;;;;;42.45;18.70;;;;;;;-0.65;68.01;96276.13;1791721;80;25675;-80
2021/04/07 06:48:54;;;;;;;27.65;15.43;;;;;;;-0.54;68.01;96273.61;1791618;80;25750;-79
2021/04/07 06:51:23;;;;;;;29.48;16.25;;;;;;;-0.44;67.75;96271.58;1791625;80;26092;-80
2021/04/07 06:53:52;;;;;;;37.83;17.92;;;;;;;-0.34;67.60;96278.83;1791677;79;28390;-79
2021/04/07 06:56:20;;;;;;;40.58;19.27;;;;;;;-0.25;67.51;96281.81;1791599;80;25702;-80
2021/04/07 06:58:47;;;;;;;27.52;15.90;;;;;;;-0.18;67.44;96285.91;1791764;79;25760;-79
2021/04/07 07:01:15;;;;;;;32.63;17.23;;;;;;;-0.08;67.21;96287.86;1791797;79;25755;-80
2021/04/07 07:03:43;;;;;;;32.98;17.60;;;;;;;-0.02;67.17;96288.50;1791749;79;25771;-80
2021/04/07 07:06:11;;;;;;;36.48;17.82;;;;;;;0.09;67.06;96285.47;1791741;80;28429;-80
2021/04/07 07:08:38;;;;;;;42.65;22.48;;;;;;;0.18;67.08;96292.38;1791553;79;26152;-80
2021/04/07 07:11:15;;;;;;;41.68;21.93;;;;;;;0.29;66.90;96291.98;1791660;80;26211;-80
2021/04/07 07:13:44;;;;;;;49.03;27.32;;;;;;;0.30;66.78;96295.47;1791815;80;25782;-80
2021/04/07 07:16:12;;;;;;;52.35;27.70;;;;;;;0.30;66.83;96295.47;1791677;80;25828;-80
2021/04/07 07:18:44;;;;;;;51.00;26.35;;;;;;;0.33;67.00;96300.43;1791784;80;26748;-81
2021/04/07 07:21:16;;;;;;;54.15;27.10;;;;;;;0.38;67.09;96297.23;1791724;79;25831;-80
2021/04/07 07:23:46;;;;;;;;;;;;;;;0.42;67.07;96307.84;1794508;80;25706;-81
2021/04/07 07:26:16;;;;;;;82.05;33.65;;;;;;;0.41;67.25;96303.53;1791749;80;25773;-81
2021/04/07 07:28:54;;;;;;;79.45;33.20;;;;;;;0.40;67.27;96304.03;1791783;80;25762;-80
2021/04/07 07:31:27;;;;;;;91.92;44.13;;;;;;;0.42;67.34;96312.65;1791880;80;27564;-80
2021/04/07 07:33:55;;;;;;;;;;;;;;;0.35;67.26;96309.88;1796131;78;25898;-80
2021/04/07 07:36:24;;;;;;;42.30;20.70;;;;;;;0.47;67.52;96310.31;1819391;78;25829;-80
2021/04/07 07:38:56;;;;;;;32.90;18.85;;;;;;;0.61;67.46;96312.19;1819349;78;26393;-80
2021/04/07 07:41:29;;;;;;;30.62;17.80;;;;;;;0.74;67.46;96314.26;1819463;78;25774;-80
2021/04/07 07:43:56;;;;;;;28.42;16.77;;;;;;;0.81;67.55;96317.88;1819448;78;27565;-80
2021/04/07 07:46:27;;;;;;;31.02;18.40;;;;;;;0.89;67.43;96313.82;1819326;78;25865;-80
2021/04/07 07:48:56;;;;;;;29.05;15.65;;;;;;;1.02;67.54;96312.72;1819471;78;25679;-81
2021/04/07 07:51:27;;;;;;;30.75;16.30;;;;;;;1.14;67.19;96311.80;1819430;78;25783;-80
2021/04/07 07:53:56;;;;;;;33.67;16.93;;;;;;;1.25;67.24;96315.85;1819436;78;25800;-80
2021/04/07 07:56:36;;;;;;;26.57;16.87;;;;;;;1.43;67.10;96316.36;1819262;78;28393;-78
2021/04/07 07:59:04;;;;;;;30.62;16.42;;;;;;;1.59;66.82;96317.51;1819168;78;25767;-80
2021/04/07 08:01:44;;;;;;;24.75;14.28;;;;;;;1.80;66.70;96317.64;1819326;78;25695;-79
2021/04/07 08:04:13;;;;;;;27.15;17.50;;;;;;;2.03;66.13;96319.37;1819339;78;26456;-81
2021/04/07 08:06:41;;;;;;;26.45;15.50;;;;;;;2.10;66.10;96316.28;1819331;78;26257;-81
2021/04/07 08:09:10;;;;;;;26.23;16.20;;;;;;;2.21;65.84;96318.97;1819301;78;27725;-80
2021/04/07 08:11:38;;;;;;;26.17;17.10;;;;;;;2.21;65.68;96322.46;1819306;78;25765;-80
2021/04/07 08:14:07;;;;;;;27.13;17.25;;;;;;;2.20;65.58;96328.80;1787712;78;25774;-79
2021/04/07 08:16:37;;;;;;;28.25;17.15;;;;;;;2.16;65.24;96331.02;1819473;78;25587;-79
2021/04/07 08:19:05;;;;;;;33.45;18.37;;;;;;;2.01;65.17;96322.22;1819439;78;25778;-79
2021/04/07 08:21:35;;;;;;;29.18;18.35;;;;;;;2.02;65.26;96333.69;1819378;78;27555;-80
2021/04/07 08:24:05;;;;;;;28.85;18.27;;;;;;;2.01;65.18;96332.03;1819378;78;25985;-80
2021/04/07 08:26:37;;;;;;;23.95;15.38;;;;;;;1.98;65.19;96327.90;1819443;78;25710;-81
2021/04/07 08:29:05;;;;;;;24.52;15.50;;;;;;;1.93;64.97;96342.28;1819267;78;25765;-81
2021/04/07 08:31:34;;;;;;;28.42;15.78;;;;;;;2.02;65.00;96340.34;1819423;78;25789;-80
2021/04/07 08:34:05;;;;;;;21.60;14.13;;;;;;;2.14;65.10;96338.87;1819356;78;27559;-80
2021/04/07 08:36:33;;;;;;;23.05;15.23;;;;;;;2.08;64.80;96339.59;1822550;78;25741;-81
2021/04/07 08:39:14;;;;;;;26.70;15.15;;;;;;;2.05;64.84;96339.45;1822662;78;25683;-81
2021/04/07 08:41:43;;;;;;;24.30;14.40;;;;;;;2.15;64.87;96331.20;1822556;78;25748;-81
2021/04/07 08:44:11;;;;;;;24.40;16.00;;;;;;;2.18;64.66;96340.13;1822551;78;25341;-80
2021/04/07 08:46:53;;;;;;;23.92;13.95;;;;;;;2.31;64.86;96336.31;1800158;78;27664;-80
2021/04/07 08:49:40;;;;;;;19.87;13.72;;;;;;;2.65;64.67;96335.71;1789237;80;26147;-81
2021/04/07 08:52:22;;;;;;;27.15;15.95;;;;;;;2.76;64.40;96329.06;1790277;80;25714;-81
2021/04/07 08:54:59;;;;;;;18.90;11.33;;;;;;;2.80;64.27;96332.98;1790337;80;25667;-78
2021/04/07 08:57:32;;;;;;;105.87;37.83;;;;;;;2.78;63.64;96339.83;1790111;80;25766;-80
2021/04/07 09:00:12;;;;;;;256.45;78.75;;;;;;;2.67;63.64;96344.83;1790211;80;27538;-80
2021/04/07 09:05:39;;;;;;;51.75;22.27;;;;;;;2.14;64.17;96369.48;1886849;76;35211;-80
2021/04/07 09:08:08;;;;;;;46.20;22.80;;;;;;;1.57;64.73;96366.59;1857954;77;25621;-82
2021/04/07 09:10:56;;;;;;;32.83;18.30;;;;;;;1.23;65.76;96380.33;1857813;76;28014;-80
2021/04/07 09:13:35;;;;;;;33.90;17.92;;;;;;;1.23;66.42;96372.35;1857668;77;25741;-81
2021/04/07 09:16:07;;;;;;;38.65;22.40;;;;;;;1.23;66.65;96378.50;1857715;77;25704;-79
2021/04/07 09:18:37;;;;;;;;;;;;;;;1.35;66.87;96374.91;1860613;77;25759;-80
2021/04/07 09:21:09;;;;;;;17.00;11.65;;;;;;;1.56;67.02;96372.92;1857941;77;25817;-80
2021/04/07 09:23:38;;;;;;;;;;;;;;;1.61;66.98;96371.36;1860520;77;27493;-81
2021/04/07 09:26:13;;;;;;;17.10;11.10;;;;;;;1.67;66.59;96379.13;1857630;77;25800;-81
2021/04/07 09:28:48;;;;;;;24.25;15.65;;;;;;;1.74;66.37;96367.58;1857820;77;25697;-82
2021/04/07 09:31:29;;;;;;;14.93;9.28;;;;;;;2.09;66.60;96378.52;1857786;77;26182;-83
2021/04/07 09:33:58;;;;;;;19.27;10.37;;;;;;;2.59;66.13;96364.42;1858153;77;25627;-80
2021/04/07 09:36:38;;;;;;;16.55;9.63;;;;;;;3.03;66.17;96358.95;1857848;77;27490;-81
2021/04/07 09:39:15;;;;;;;12.82;8.13;;;;;;;3.46;66.13;96358.95;1857699;77;26110;-79
2021/04/07 09:41:44;;;;;;;4.95;3.65;;;;;;;3.70;64.33;96363.88;1857797;77;25630;-79
2021/04/07 09:44:18;;;;;;;8.70;4.20;;;;;;;3.58;62.65;96348.91;1857778;77;25639;-79
2021/04/07 09:46:56;;;;;;;6.97;4.25;;;;;;;3.71;62.13;96355.36;1857749;77;26076;-80
2021/04/07 09:49:28;;;;;;;7.08;4.37;;;;;;;3.77;61.47;96358.06;1857759;77;28398;-79
2021/04/07 09:51:56;;;;;;;8.83;4.35;;;;;;;3.76;61.45;96360.41;1857819;77;25879;-80
2021/04/07 09:54:28;;;;;;;6.17;4.22;;;;;;;3.65;60.70;96356.94;1857704;77;26100;-79
2021/04/07 09:57:08;;;;;;;7.97;4.93;;;;;;;3.75;60.46;96361.94;1857902;77;25740;-79
2021/04/07 09:59:52;;;;;;;7.40;4.08;;;;;;;3.74;60.53;96355.80;1857795;77;25784;-79
2021/04/07 10:02:29;;;;;;;6.45;4.50;;;;;;;3.51;59.56;96365.86;1857833;77;27719;-80
2021/04/07 10:04:57;;;;;;;8.80;4.60;;;;;;;3.47;58.97;96365.95;1835827;77;25683;-79
2021/04/07 10:07:28;;;;;;;7.05;4.65;;;;;;;3.52;59.19;96359.50;1787458;80;25691;-82
2021/04/07 10:09:58;;;;;;;6.58;4.62;;;;;;;3.42;58.56;96369.69;1765193;81;26319;-80
2021/04/07 10:12:29;;;;;;;8.60;4.92;;;;;;;3.47;58.95;96367.28;1765320;81;25761;-80
2021/04/07 10:15:04;;;;;;;9.03;5.50;;;;;;;3.56;58.68;96368.78;1764985;81;27484;-80
2021/04/07 10:17:36;;;;;;;7.42;4.67;;;;;;;3.53;58.52;96372.66;1764544;80;25707;-80
2021/04/07 10:20:13;;;;;;;39.60;17.65;;;;;;;3.43;58.10;96370.83;1764758;80;25793;-81
2021/04/07 10:22:43;;;;;;;124.65;40.17;;;;;;;3.38;57.76;96368.44;1764553;81;25885;-82
2021/04/07 10:25:14;;;;;;;162.68;51.63;;;;;;;3.36;57.73;96369.12;1764555;81;26032;-79
2021/04/07 10:27:44;;;;;;;51.60;23.85;;;;;;;3.32;57.79;96369.19;1764607;81;27543;-79
2021/04/07 10:30:18;;;;;;;26.12;14.65;;;;;;;3.34;57.31;96370.66;1764455;81;26138;-80
2021/04/07 10:32:49;;;;;;;18.65;10.78;;;;;;;3.53;57.34;96371.33;1764576;80;25766;-82
2021/04/07 10:35:26;;;;;;;50.67;22.02;;;;;;;3.71;57.63;96368.20;1763893;80;25759;-80
2021/04/07 10:38:04;;;;;;;17.60;9.50;;;;;;;4.13;57.80;96366.41;1764637;81;25313;-81
2021/04/07 10:40:35;;;;;;;7.90;5.67;;;;;;;4.84;57.22;96363.77;1762689;80;27742;-81
2021/04/07 10:43:20;;;;;;;7.75;4.60;;;;;;;5.30;57.04;96361.73;1764500;81;25715;-83
2021/04/07 10:46:00;;;;;;;33.35;13.75;;;;;;;5.73;56.20;96348.77;1764469;81;25653;-83
2021/04/07 10:48:28;;;;;;;8.10;5.15;;;;;;;6.25;56.77;96345.76;1764592;80;26290;-83
2021/04/07 10:50:58;;;;;;;23.83;13.30;;;;;;;6.51;55.62;96352.39;1764496;80;25666;-82
2021/04/07 10:53:39;;;;;;;13.40;7.28;;;;;;;6.68;55.18;96352.20;1764493;81;27292;-83
2021/04/07 10:56:19;;;;;;;9.70;5.62;;;;;;;7.23;54.18;96337.80;1763546;80;25918;-82
2021/04/07 10:58:59;;;;;;;8.18;5.08;;;;;;;7.38;52.89;96344.19;1764643;81;26085;-84
2021/04/07 11:01:30;;;;;;;12.20;6.67;;;;;;;7.05;51.84;96347.91;1762763;80;25747;-84
2021/04/07 11:03:58;;;;;;;19.87;10.50;;;;;;;6.88;51.63;96343.27;1769405;78;25857;-84
2021/04/07 11:06:26;;;;;;;9.33;5.10;;;;;;;6.91;51.38;96349.52;1760790;79;27502;-84
2021/04/07 11:08:54;;;;;;;16.15;8.75;;;;;;;6.64;51.51;96359.56;1760833;79;25689;-83
2021/04/07 11:11:25;;;;;;;15.38;7.78;;;;;;;6.54;51.27;96351.94;1794051;79;25800;-83
2021/04/07 11:13:54;;;;;;;12.03;7.10;;;;;;;6.38;51.22;96349.75;1794038;79;26085;-82
2021/04/07 11:16:34;;;;;;;11.38;7.22;;;;;;;6.29;51.04;96373.77;1794028;79;25674;-82
2021/04/07 11:19:04;;;;;;;10.20;6.17;;;;;;;5.88;50.68;96389.59;1794104;79;27499;-84
2021/04/07 11:21:32;;;;;;;11.48;7.22;;;;;;;4.70;53.24;96390.16;1791886;79;26079;-85
2021/04/07 11:23:59;;;;;;;10.00;6.08;;;;;;;3.32;55.96;96418.53;1794000;79;25780;-84
2021/04/07 11:26:27;;;;;;;10.20;6.40;;;;;;;2.11;59.65;96425.75;1794110;79;26141;-80
2021/04/07 11:28:54;;;;;;;7.05;4.55;;;;;;;1.42;61.15;96452.98;1794061;79;25821;-84
2021/04/07 11:31:24;;;;;;;11.05;6.08;;;;;;;1.20;61.93;96443.17;1794102;79;28467;-81
2021/04/07 11:33:54;;;;;;;17.75;8.48;;;;;;;0.83;62.76;96450.04;1793967;79;25858;-82
2021/04/07 11:36:41;;;;;;;19.87;8.45;;;;;;;0.73;63.48;96448.07;1793909;79;25696;-84